sensor_id;sensor_type;location;lat;lon;timestamp;pressure;altitude;pressure_sealevel;temperature;humidity
3668;BME280;24099;47.102;15.440;2023-05-20T00:00:17;97625.09;;;13.22;100.00
3668;BME280;24099;47.102;15.440;2023-05-20T00:02:49;97626.00;;;13.15;100.00
3668;BME280;24099;47.102;15.440;2023-05-20T00:05:17;97628.91;;;13.20;100.00
3668;BME280;24099;47.102;15.440;2023-05-20T00:07:47;97620.97;;;13.20;100.00
3668;BME280;24099;47.102;15.440;2023-05-20T00:10:15;97621.56;;;13.00;100.00
3668;BME280;24099;47.102;15.440;2023-05-20T00:12:43;97623.69;;;12.90;100.00
3668;BME280;24099;47.102;15.440;2023-05-20T00:15:12;97628.34;;;12.88;100.00
3668;BME280;24099;47.102;15.440;2023-05-20T00:17:40;97630.25;;;12.94;100.00
3668;BME280;24099;47.102;15.440;2023-05-20T00:20:10;97630.75;;;13.04;100.00
3668;BME280;24099;47.102;15.440;2023-05-20T00:22:37;97632.38;;;13.05;100.00
3668;BME280;24099;47.102;15.440;2023-05-20T00:25:06;97625.47;;;13.04;100.00
3668;BME280;24099;47.102;15.440;2023-05-20T00:27:34;97627.06;;;12.99;100.00
3668;BME280;24099;47.102;15.440;2023-05-20T00:30:02;97626.47;;;13.03;100.00
3668;BME280;24099;47.102;15.440;2023-05-20T00:32:30;97626.22;;;12.98;100.00
3668;BME280;24099;47.102;15.440;2023-05-20T00:35:01;97625.19;;;12.99;100.00
3668;BME280;24099;47.102;15.440;2023-05-20T00:37:31;97629.28;;;13.02;100.00
3668;BME280;24099;47.102;15.440;2023-05-20T00:40:02;97629.13;;;13.03;100.00
3668;BME280;24099;47.102;15.440;2023-05-20T00:42:30;97627.41;;;12.96;100.00
3668;BME280;24099;47.102;15.440;2023-05-20T00:44:58;97624.31;;;12.92;100.00
3668;BME280;24099;47.102;15.440;2023-05-20T00:47:30;97625.19;;;12.99;100.00
3668;BME280;24099;47.102;15.440;2023-05-20T00:50:03;97615.66;;;12.98;100.00
3668;BME280;24099;47.102;15.440;2023-05-20T00:52:32;97624.25;;;13.22;100.00
3668;BME280;24099;47.102;15.440;2023-05-20T00:55:00;97609.69;;;13.11;100.00
3668;BME280;24099;47.102;15.440;2023-05-20T00:57:31;97613.53;;;13.08;100.00
3668;BME280;24099;47.102;15.440;2023-05-20T00:59:59;97609.03;;;12.88;100.00
3668;BME280;24099;47.102;15.440;2023-05-20T01:02:26;97611.16;;;12.77;100.00
3668;BME280;24099;47.102;15.440;2023-05-20T01:04:55;97610.84;;;12.87;100.00
3668;BME280;24099;47.102;15.440;2023-05-20T01:07:32;97611.63;;;13.02;100.00
3668;BME280;24099;47.102;15.440;2023-05-20T01:10:00;97604.47;;;12.96;100.00
3668;BME280;24099;47.102;15.440;2023-05-20T01:12:33;97611.38;;;12.97;100.00
3668;BME280;24099;47.102;15.440;2023-05-20T01:15:06;97598.91;;;12.91;100.00
3668;BME280;24099;47.102;15.440;2023-05-20T01:17:38;97594.91;;;12.95;100.00
3668;BME280;24099;47.102;15.440;2023-05-20T01:20:08;97599.13;;;13.11;100.00
3668;BME280;24099;47.102;15.440;2023-05-20T01:22:39;97588.09;;;13.07;100.00
3668;BME280;24099;47.102;15.440;2023-05-20T01:25:13;97592.31;;;13.02;100.00
3668;BME280;24099;47.102;15.440;2023-05-20T01:27:41;97597.59;;;13.02;100.00
3668;BME280;24099;47.102;15.440;2023-05-20T01:30:10;97598.50;;;13.09;100.00
3668;BME280;24099;47.102;15.440;2023-05-20T01:32:42;97588.41;;;12.98;100.00
3668;BME280;24099;47.102;15.440;2023-05-20T01:35:17;97596.34;;;12.83;100.00
3668;BME280;24099;47.102;15.440;2023-05-20T01:37:48;97593.16;;;12.88;100.00
3668;BME280;24099;47.102;15.440;2023-05-20T01:40:17;97591.72;;;12.85;100.00
3668;BME280;24099;47.102;15.440;2023-05-20T01:42:46;97593.25;;;12.94;100.00
3668;BME280;24099;47.102;15.440;2023-05-20T01:45:18;97584.56;;;13.00;100.00
3668;BME280;24099;47.102;15.440;2023-05-20T01:47:46;97582.91;;;12.99;100.00
3668;BME280;24099;47.102;15.440;2023-05-20T01:50:16;97582.69;;;12.94;100.00
3668;BME280;24099;47.102;15.440;2023-05-20T01:52:45;97579.97;;;12.88;100.00
3668;BME280;24099;47.102;15.440;2023-05-20T01:55:13;97582.97;;;12.85;100.00
3668;BME280;24099;47.102;15.440;2023-05-20T01:57:41;97594.25;;;12.93;100.00
3668;BME280;24099;47.102;15.440;2023-05-20T02:00:10;97592.69;;;12.99;100.00
3668;BME280;24099;47.102;15.440;2023-05-20T02:02:41;97595.81;;;12.88;100.00
3668;BME280;24099;47.102;15.440;2023-05-20T02:05:11;97592.91;;;12.83;100.00
3668;BME280;24099;47.102;15.440;2023-05-20T02:07:38;97591.72;;;12.85;100.00
3668;BME280;24099;47.102;15.440;2023-05-20T02:10:08;97591.06;;;12.98;100.00
3668;BME280;24099;47.102;15.440;2023-05-20T02:12:36;97579.50;;;12.84;100.00
3668;BME280;24099;47.102;15.440;2023-05-20T02:15:05;97567.06;;;12.78;100.00
3668;BME280;24099;47.102;15.440;2023-05-20T02:17:34;97573.41;;;12.84;100.00
3668;BME280;24099;47.102;15.440;2023-05-20T02:20:02;97575.59;;;12.80;100.00
3668;BME280;24099;47.102;15.440;2023-05-20T02:22:37;97565.59;;;12.75;100.00
3668;BME280;24099;47.102;15.440;2023-05-20T02:25:08;97570.53;;;12.79;100.00
3668;BME280;24099;47.102;15.440;2023-05-20T02:27:36;97571.31;;;12.79;100.00
3668;BME280;24099;47.102;15.440;2023-05-20T02:30:06;97572.91;;;12.73;100.00
3668;BME280;24099;47.102;15.440;2023-05-20T02:32:34;97578.63;;;12.77;100.00
3668;BME280;24099;47.102;15.440;2023-05-20T02:35:03;97575.41;;;12.82;100.00
3668;BME280;24099;47.102;15.440;2023-05-20T02:37:31;97580.78;;;12.88;100.00
3668;BME280;24099;47.102;15.440;2023-05-20T02:39:59;97588.97;;;12.93;100.00
3668;BME280;24099;47.102;15.440;2023-05-20T02:42:29;97586.38;;;13.00;100.00
3668;BME280;24099;47.102;15.440;2023-05-20T02:44:57;97594.69;;;13.33;100.00
3668;BME280;24099;47.102;15.440;2023-05-20T02:47:25;97577.00;;;13.33;100.00
3668;BME280;24099;47.102;15.440;2023-05-20T02:49:53;97573.03;;;13.23;100.00
3668;BME280;24099;47.102;15.440;2023-05-20T02:52:21;97568.19;;;13.26;100.00
3668;BME280;24099;47.102;15.440;2023-05-20T02:54:49;97553.72;;;13.22;100.00
3668;BME280;24099;47.102;15.440;2023-05-20T02:57:18;97565.06;;;13.16;100.00
3668;BME280;24099;47.102;15.440;2023-05-20T02:59:48;97571.97;;;13.02;100.00
3668;BME280;24099;47.102;15.440;2023-05-20T03:02:15;97570.97;;;13.03;100.00
3668;BME280;24099;47.102;15.440;2023-05-20T03:04:43;97571.97;;;13.17;100.00
3668;BME280;24099;47.102;15.440;2023-05-20T03:07:11;97578.16;;;13.09;100.00
3668;BME280;24099;47.102;15.440;2023-05-20T03:09:39;97586.72;;;13.11;100.00
3668;BME280;24099;47.102;15.440;2023-05-20T03:12:08;97590.66;;;13.01;100.00
3668;BME280;24099;47.102;15.440;2023-05-20T03:14:35;97596.84;;;13.08;100.00
3668;BME280;24099;47.102;15.440;2023-05-20T03:17:05;97594.53;;;12.98;100.00
3668;BME280;24099;47.102;15.440;2023-05-20T03:19:34;97591.78;;;12.92;100.00
3668;BME280;24099;47.102;15.440;2023-05-20T03:22:11;97590.34;;;12.89;100.00
3668;BME280;24099;47.102;15.440;2023-05-20T03:24:39;97582.22;;;12.91;100.00
3668;BME280;24099;47.102;15.440;2023-05-20T03:27:08;97580.59;;;12.90;100.00
3668;BME280;24099;47.102;15.440;2023-05-20T03:29:36;97588.81;;;12.80;100.00
3668;BME280;24099;47.102;15.440;2023-05-20T03:32:06;97588.44;;;12.83;100.00
3668;BME280;24099;47.102;15.440;2023-05-20T03:34:37;97599.19;;;12.82;100.00
3668;BME280;24099;47.102;15.440;2023-05-20T03:37:10;97604.97;;;12.70;100.00
3668;BME280;24099;47.102;15.440;2023-05-20T03:39:37;97604.97;;;12.56;100.00
3668;BME280;24099;47.102;15.440;2023-05-20T03:42:05;97606.81;;;12.55;100.00
3668;BME280;24099;47.102;15.440;2023-05-20T03:44:34;97609.97;;;12.65;100.00
3668;BME280;24099;47.102;15.440;2023-05-20T03:47:06;97605.09;;;12.84;100.00
3668;BME280;24099;47.102;15.440;2023-05-20T03:49:34;97603.00;;;12.79;100.00
3668;BME280;24099;47.102;15.440;2023-05-20T03:52:06;97607.50;;;12.64;100.00
3668;BME280;24099;47.102;15.440;2023-05-20T03:54:34;97606.34;;;12.52;100.00
3668;BME280;24099;47.102;15.440;2023-05-20T03:57:03;97600.25;;;12.51;100.00
3668;BME280;24099;47.102;15.440;2023-05-20T03:59:31;97600.59;;;12.63;100.00
3668;BME280;24099;47.102;15.440;2023-05-20T04:01:59;97610.41;;;12.69;100.00
3668;BME280;24099;47.102;15.440;2023-05-20T04:04:29;97609.13;;;12.65;100.00
3668;BME280;24099;47.102;15.440;2023-05-20T04:06:57;97604.88;;;12.64;100.00
3668;BME280;24099;47.102;15.440;2023-05-20T04:09:26;97606.59;;;12.71;100.00
3668;BME280;24099;47.102;15.440;2023-05-20T04:11:53;97609.50;;;12.76;100.00
3668;BME280;24099;47.102;15.440;2023-05-20T04:14:21;97612.50;;;12.73;100.00
3668;BME280;24099;47.102;15.440;2023-05-20T04:16:49;97613.34;;;12.74;100.00
3668;BME280;24099;47.102;15.440;2023-05-20T04:19:18;97610.69;;;12.74;100.00
3668;BME280;24099;47.102;15.440;2023-05-20T04:21:51;97615.94;;;12.89;100.00
3668;BME280;24099;47.102;15.440;2023-05-20T04:24:22;97609.75;;;12.96;100.00
3668;BME280;24099;47.102;15.440;2023-05-20T04:26:51;97608.16;;;13.02;100.00
3668;BME280;24099;47.102;15.440;2023-05-20T04:29:18;97613.53;;;13.08;100.00
3668;BME280;24099;47.102;15.440;2023-05-20T04:31:48;97607.50;;;13.15;100.00
3668;BME280;24099;47.102;15.440;2023-05-20T04:34:15;97608.59;;;13.20;100.00
3668;BME280;24099;47.102;15.440;2023-05-20T04:36:47;97598.28;;;13.25;100.00
3668;BME280;24099;47.102;15.440;2023-05-20T04:39:17;97604.31;;;13.40;100.00
3668;BME280;24099;47.102;15.440;2023-05-20T04:41:50;97592.91;;;13.40;100.00
3668;BME280;24099;47.102;15.440;2023-05-20T04:44:20;97598.22;;;13.40;100.00
3668;BME280;24099;47.102;15.440;2023-05-20T04:46:48;97590.34;;;13.47;100.00
3668;BME280;24099;47.102;15.440;2023-05-20T04:49:15;97595.25;;;13.50;100.00
3668;BME280;24099;47.102;15.440;2023-05-20T04:51:46;97593.69;;;13.55;100.00
3668;BME280;24099;47.102;15.440;2023-05-20T04:54:15;97597.38;;;13.61;100.00
3668;BME280;24099;47.102;15.440;2023-05-20T04:56:44;97595.63;;;13.68;100.00
3668;BME280;24099;47.102;15.440;2023-05-20T04:59:12;97588.78;;;13.80;100.00
3668;BME280;24099;47.102;15.440;2023-05-20T05:01:40;97589.41;;;13.82;100.00
3668;BME280;24099;47.102;15.440;2023-05-20T05:04:08;97585.75;;;13.83;100.00
3668;BME280;24099;47.102;15.440;2023-05-20T05:06:36;97587.66;;;13.89;100.00
3668;BME280;24099;47.102;15.440;2023-05-20T05:09:05;97591.13;;;13.90;100.00
3668;BME280;24099;47.102;15.440;2023-05-20T05:11:34;97578.16;;;14.01;100.00
3668;BME280;24099;47.102;15.440;2023-05-20T05:14:04;97568.59;;;14.00;100.00
3668;BME280;24099;47.102;15.440;2023-05-20T05:16:38;97571.56;;;14.19;100.00
3668;BME280;24099;47.102;15.440;2023-05-20T05:19:14;97577.31;;;14.57;100.00
3668;BME280;24099;47.102;15.440;2023-05-20T05:21:42;97556.31;;;14.62;100.00
3668;BME280;24099;47.102;15.440;2023-05-20T05:24:12;97544.81;;;14.41;100.00
3668;BME280;24099;47.102;15.440;2023-05-20T05:26:39;97555.22;;;14.43;100.00
3668;BME280;24099;47.102;15.440;2023-05-20T05:29:07;97553.94;;;14.39;100.00
3668;BME280;24099;47.102;15.440;2023-05-20T05:31:35;97553.53;;;14.35;100.00
3668;BME280;24099;47.102;15.440;2023-05-20T05:34:08;97559.06;;;14.40;100.00
3668;BME280;24099;47.102;15.440;2023-05-20T05:36:37;97561.31;;;14.43;100.00
3668;BME280;24099;47.102;15.440;2023-05-20T05:39:05;97553.81;;;14.47;100.00
3668;BME280;24099;47.102;15.440;2023-05-20T05:41:38;97556.06;;;14.50;100.00
3668;BME280;24099;47.102;15.440;2023-05-20T05:44:06;97554.44;;;14.49;100.00
3668;BME280;24099;47.102;15.440;2023-05-20T05:46:34;97563.81;;;14.52;100.00
3668;BME280;24099;47.102;15.440;2023-05-20T05:49:03;97561.81;;;14.54;100.00
3668;BME280;24099;47.102;15.440;2023-05-20T05:51:31;97567.09;;;14.60;100.00
3668;BME280;24099;47.102;15.440;2023-05-20T05:53:59;97557.34;;;14.61;100.00
3668;BME280;24099;47.102;15.440;2023-05-20T05:56:27;97559.00;;;14.68;100.00
3668;BME280;24099;47.102;15.440;2023-05-20T05:58:58;97563.53;;;14.74;100.00
3668;BME280;24099;47.102;15.440;2023-05-20T06:01:27;97551.72;;;14.83;100.00
3668;BME280;24099;47.102;15.440;2023-05-20T06:03:54;97554.94;;;14.79;100.00
3668;BME280;24099;47.102;15.440;2023-05-20T06:06:22;97549.88;;;14.84;100.00
3668;BME280;24099;47.102;15.440;2023-05-20T06:08:50;97553.56;;;14.90;100.00
3668;BME280;24099;47.102;15.440;2023-05-20T06:11:20;97542.38;;;14.94;100.00
3668;BME280;24099;47.102;15.440;2023-05-20T06:13:49;97537.50;;;15.04;100.00
3668;BME280;24099;47.102;15.440;2023-05-20T06:16:19;97526.69;;;15.19;100.00
3668;BME280;24099;47.102;15.440;2023-05-20T06:18:47;97533.28;;;15.36;100.00
3668;BME280;24099;47.102;15.440;2023-05-20T06:21:15;97522.84;;;15.35;100.00
3668;BME280;24099;47.102;15.440;2023-05-20T06:23:43;97518.78;;;15.52;100.00
3668;BME280;24099;47.102;15.440;2023-05-20T06:26:12;97515.13;;;15.66;100.00
3668;BME280;24099;47.102;15.440;2023-05-20T06:28:42;97519.22;;;15.75;100.00
3668;BME280;24099;47.102;15.440;2023-05-20T06:31:09;97519.81;;;15.77;100.00
3668;BME280;24099;47.102;15.440;2023-05-20T06:33:40;97514.28;;;15.92;100.00
3668;BME280;24099;47.102;15.440;2023-05-20T06:36:11;97516.28;;;16.03;100.00
3668;BME280;24099;47.102;15.440;2023-05-20T06:38:39;97504.66;;;16.04;100.00
3668;BME280;24099;47.102;15.440;2023-05-20T06:41:07;97496.25;;;16.07;100.00
3668;BME280;24099;47.102;15.440;2023-05-20T06:43:34;97491.34;;;16.17;100.00
3668;BME280;24099;47.102;15.440;2023-05-20T06:46:04;97499.06;;;16.32;100.00
3668;BME280;24099;47.102;15.440;2023-05-20T06:48:44;97492.53;;;16.22;100.00
3668;BME280;24099;47.102;15.440;2023-05-20T06:51:12;97487.41;;;16.33;100.00
3668;BME280;24099;47.102;15.440;2023-05-20T06:53:41;97490.25;;;16.38;100.00
3668;BME280;24099;47.102;15.440;2023-05-20T06:56:09;97484.50;;;16.41;100.00
3668;BME280;24099;47.102;15.440;2023-05-20T06:58:37;97474.66;;;16.48;100.00
3668;BME280;24099;47.102;15.440;2023-05-20T07:01:06;97472.75;;;16.62;100.00
3668;BME280;24099;47.102;15.440;2023-05-20T07:03:34;97462.41;;;16.85;100.00
3668;BME280;24099;47.102;15.440;2023-05-20T07:06:03;97453.91;;;16.77;100.00
3668;BME280;24099;47.102;15.440;2023-05-20T07:08:31;97451.81;;;16.79;100.00
3668;BME280;24099;47.102;15.440;2023-05-20T07:11:01;97450.13;;;16.91;100.00
3668;BME280;24099;47.102;15.440;2023-05-20T07:13:29;97445.72;;;17.03;100.00
3668;BME280;24099;47.102;15.440;2023-05-20T07:15:58;97436.94;;;17.28;100.00
3668;BME280;24099;47.102;15.440;2023-05-20T07:18:26;97433.25;;;17.53;100.00
3668;BME280;24099;47.102;15.440;2023-05-20T07:20:58;97426.56;;;17.19;100.00
3668;BME280;24099;47.102;15.440;2023-05-20T07:23:45;97425.72;;;17.26;100.00
3668;BME280;24099;47.102;15.440;2023-05-20T07:26:16;97422.78;;;17.34;100.00
3668;BME280;24099;47.102;15.440;2023-05-20T07:28:44;97425.00;;;17.37;100.00
3668;BME280;24099;47.102;15.440;2023-05-20T07:31:13;97423.84;;;17.51;100.00
3668;BME280;24099;47.102;15.440;2023-05-20T07:33:43;97423.75;;;17.64;100.00
3668;BME280;24099;47.102;15.440;2023-05-20T07:36:12;97431.28;;;17.67;100.00
3668;BME280;24099;47.102;15.440;2023-05-20T07:38:42;97415.81;;;17.58;100.00
3668;BME280;24099;47.102;15.440;2023-05-20T07:41:15;97411.78;;;17.73;100.00
3668;BME280;24099;47.102;15.440;2023-05-20T07:43:42;97415.25;;;17.74;100.00
3668;BME280;24099;47.102;15.440;2023-05-20T07:46:11;97413.41;;;17.74;100.00
3668;BME280;24099;47.102;15.440;2023-05-20T07:48:39;97420.50;;;17.80;100.00
3668;BME280;24099;47.102;15.440;2023-05-20T07:51:07;97418.59;;;17.87;100.00
3668;BME280;24099;47.102;15.440;2023-05-20T07:53:36;97435.75;;;17.92;100.00
3668;BME280;24099;47.102;15.440;2023-05-20T07:56:04;97435.75;;;17.92;100.00
3668;BME280;24099;47.102;15.440;2023-05-20T07:58:34;97441.91;;;17.92;100.00
3668;BME280;24099;47.102;15.440;2023-05-20T08:01:02;97426.13;;;17.90;100.00
3668;BME280;24099;47.102;15.440;2023-05-20T08:03:30;97423.41;;;17.97;100.00
3668;BME280;24099;47.102;15.440;2023-05-20T08:06:03;97427.91;;;18.15;100.00
3668;BME280;24099;47.102;15.440;2023-05-20T08:08:31;97412.97;;;18.14;100.00
3668;BME280;24099;47.102;15.440;2023-05-20T08:11:05;97401.38;;;18.38;100.00
3668;BME280;24099;47.102;15.440;2023-05-20T08:13:34;97404.34;;;18.60;100.00
3668;BME280;24099;47.102;15.440;2023-05-20T08:16:03;97393.09;;;18.58;100.00
3668;BME280;24099;47.102;15.440;2023-05-20T08:18:34;97393.59;;;18.67;100.00
3668;BME280;24099;47.102;15.440;2023-05-20T08:21:03;97409.91;;;18.88;100.00
3668;BME280;24099;47.102;15.440;2023-05-20T08:23:33;97396.41;;;18.72;100.00
3668;BME280;24099;47.102;15.440;2023-05-20T08:26:04;97387.81;;;18.70;100.00
3668;BME280;24099;47.102;15.440;2023-05-20T08:28:35;97388.31;;;18.78;100.00
3668;BME280;24099;47.102;15.440;2023-05-20T08:31:03;97372.69;;;19.05;100.00
3668;BME280;24099;47.102;15.440;2023-05-20T08:33:35;97366.09;;;19.43;100.00
3668;BME280;24099;47.102;15.440;2023-05-20T08:36:03;97354.00;;;19.40;100.00
3668;BME280;24099;47.102;15.440;2023-05-20T08:38:35;97353.53;;;19.20;100.00
3668;BME280;24099;47.102;15.440;2023-05-20T08:41:03;97365.16;;;19.25;100.00
3668;BME280;24099;47.102;15.440;2023-05-20T08:43:31;97363.06;;;19.39;100.00
3668;BME280;24099;47.102;15.440;2023-05-20T08:46:05;97355.91;;;19.51;100.00
3668;BME280;24099;47.102;15.440;2023-05-20T08:48:35;97352.50;;;19.21;100.00
3668;BME280;24099;47.102;15.440;2023-05-20T08:51:05;97351.25;;;19.12;100.00
3668;BME280;24099;47.102;15.440;2023-05-20T08:53:38;97345.91;;;19.12;100.00
3668;BME280;24099;47.102;15.440;2023-05-20T08:56:07;97339.72;;;19.46;100.00
3668;BME280;24099;47.102;15.440;2023-05-20T08:58:36;97325.91;;;19.61;100.00
3668;BME280;24099;47.102;15.440;2023-05-20T09:01:05;97324.22;;;19.55;100.00
3668;BME280;24099;47.102;15.440;2023-05-20T09:03:33;97327.78;;;19.72;100.00
3668;BME280;24099;47.102;15.440;2023-05-20T09:06:05;97324.53;;;19.70;100.00
3668;BME280;24099;47.102;15.440;2023-05-20T09:08:33;97316.00;;;19.85;100.00
3668;BME280;24099;47.102;15.440;2023-05-20T09:11:01;97316.44;;;20.22;100.00
3668;BME280;24099;47.102;15.440;2023-05-20T09:13:30;97302.13;;;20.28;100.00
3668;BME280;24099;47.102;15.440;2023-05-20T09:15:59;97309.47;;;20.49;100.00
3668;BME280;24099;47.102;15.440;2023-05-20T09:18:29;97312.53;;;20.13;100.00
3668;BME280;24099;47.102;15.440;2023-05-20T09:21:03;97308.34;;;20.17;100.00
3668;BME280;24099;47.102;15.440;2023-05-20T09:23:31;97306.06;;;20.37;100.00
3668;BME280;24099;47.102;15.440;2023-05-20T09:26:01;97305.75;;;20.50;100.00
3668;BME280;24099;47.102;15.440;2023-05-20T09:28:29;97304.84;;;20.61;100.00
3668;BME280;24099;47.102;15.440;2023-05-20T09:31:04;97294.34;;;20.72;100.00
3668;BME280;24099;47.102;15.440;2023-05-20T09:33:35;97304.63;;;20.96;100.00
3668;BME280;24099;47.102;15.440;2023-05-20T09:36:04;97294.00;;;20.85;100.00
3668;BME280;24099;47.102;15.440;2023-05-20T09:38:37;97291.63;;;21.05;100.00
3668;BME280;24099;47.102;15.440;2023-05-20T09:41:09;97286.72;;;21.19;100.00
3668;BME280;24099;47.102;15.440;2023-05-20T09:43:38;97284.47;;;21.27;100.00
3668;BME280;24099;47.102;15.440;2023-05-20T09:46:07;97273.22;;;21.09;100.00
3668;BME280;24099;47.102;15.440;2023-05-20T09:48:37;97278.56;;;21.25;100.00
3668;BME280;24099;47.102;15.440;2023-05-20T09:51:05;97272.09;;;20.88;100.00
3668;BME280;24099;47.102;15.440;2023-05-20T09:53:33;97278.69;;;20.63;100.00
3668;BME280;24099;47.102;15.440;2023-05-20T09:56:01;97272.81;;;21.00;100.00
3668;BME280;24099;47.102;15.440;2023-05-20T09:58:34;97271.75;;;21.18;100.00
3668;BME280;24099;47.102;15.440;2023-05-20T10:01:02;97277.03;;;21.29;100.00
3668;BME280;24099;47.102;15.440;2023-05-20T10:03:30;97284.94;;;21.41;100.00
3668;BME280;24099;47.102;15.440;2023-05-20T10:06:20;97272.97;;;21.10;100.00
3668;BME280;24099;47.102;15.440;2023-05-20T10:09:05;97277.97;;;21.62;100.00
3668;BME280;24099;47.102;15.440;2023-05-20T10:11:44;97276.41;;;21.66;100.00
3668;BME280;24099;47.102;15.440;2023-05-20T10:14:38;97267.22;;;21.40;100.00
3668;BME280;24099;47.102;15.440;2023-05-20T10:17:12;97262.75;;;22.11;100.00
3668;BME280;24099;47.102;15.440;2023-05-20T10:19:43;97260.72;;;21.53;100.00
3668;BME280;24099;47.102;15.440;2023-05-20T10:22:12;97258.50;;;21.93;100.00
3668;BME280;24099;47.102;15.440;2023-05-20T10:24:42;97255.84;;;22.20;100.00
3668;BME280;24099;47.102;15.440;2023-05-20T10:27:11;97250.41;;;22.42;100.00
3668;BME280;24099;47.102;15.440;2023-05-20T10:29:44;97245.25;;;22.67;100.00
3668;BME280;24099;47.102;15.440;2023-05-20T10:32:24;97260.69;;;22.23;100.00
3668;BME280;24099;47.102;15.440;2023-05-20T10:34:52;97254.84;;;21.78;100.00
3668;BME280;24099;47.102;15.440;2023-05-20T10:37:29;97252.97;;;21.78;100.00
3668;BME280;24099;47.102;15.440;2023-05-20T10:40:05;97251.31;;;21.99;100.00
3668;BME280;24099;47.102;15.440;2023-05-20T10:42:34;97251.16;;;21.84;100.00
3668;BME280;24099;47.102;15.440;2023-05-20T10:45:02;97249.16;;;21.96;100.00
3668;BME280;24099;47.102;15.440;2023-05-20T10:47:31;97251.19;;;22.11;100.00
3668;BME280;24099;47.102;15.440;2023-05-20T10:49:59;97257.78;;;21.76;100.00
3668;BME280;24099;47.102;15.440;2023-05-20T10:52:32;97258.63;;;22.30;99.14
3668;BME280;24099;47.102;15.440;2023-05-20T10:55:00;97240.06;;;22.56;100.00
3668;BME280;24099;47.102;15.440;2023-05-20T10:57:30;97231.88;;;22.41;99.76
3668;BME280;24099;47.102;15.440;2023-05-20T10:59:58;97237.66;;;22.91;94.26
3668;BME280;24099;47.102;15.440;2023-05-20T11:02:29;97244.78;;;23.13;92.10
3668;BME280;24099;47.102;15.440;2023-05-20T11:04:57;97247.22;;;23.14;90.93
3668;BME280;24099;47.102;15.440;2023-05-20T11:07:32;97242.34;;;22.42;97.92
3668;BME280;24099;47.102;15.440;2023-05-20T11:10:00;97233.97;;;22.65;98.09
3668;BME280;24099;47.102;15.440;2023-05-20T11:12:32;97226.97;;;22.64;96.65
3668;BME280;24099;47.102;15.440;2023-05-20T11:15:00;97232.66;;;23.05;95.68
3668;BME280;24099;47.102;15.440;2023-05-20T11:17:29;97226.84;;;22.81;95.84
3668;BME280;24099;47.102;15.440;2023-05-20T11:19:57;97222.34;;;22.23;96.14
3668;BME280;24099;47.102;15.440;2023-05-20T11:22:27;97231.06;;;22.08;98.80
3668;BME280;24099;47.102;15.440;2023-05-20T11:24:55;97237.00;;;22.10;95.27
3668;BME280;24099;47.102;15.440;2023-05-20T11:27:22;97225.34;;;22.95;95.86
3668;BME280;24099;47.102;15.440;2023-05-20T11:29:53;97214.94;;;23.56;94.26
3668;BME280;24099;47.102;15.440;2023-05-20T11:32:21;97207.75;;;23.92;93.05
3668;BME280;24099;47.102;15.440;2023-05-20T11:34:51;97211.31;;;23.41;92.98
3668;BME280;24099;47.102;15.440;2023-05-20T11:37:19;97205.09;;;23.25;90.72
3668;BME280;24099;47.102;15.440;2023-05-20T11:40:03;97205.94;;;23.41;93.06
3668;BME280;24099;47.102;15.440;2023-05-20T11:42:35;97208.94;;;23.49;92.22
3668;BME280;24099;47.102;15.440;2023-05-20T11:45:03;97213.25;;;22.93;90.00
3668;BME280;24099;47.102;15.440;2023-05-20T11:47:33;97207.97;;;23.08;88.44
3668;BME280;24099;47.102;15.440;2023-05-20T11:50:01;97200.97;;;23.07;90.08
3668;BME280;24099;47.102;15.440;2023-05-20T11:52:32;97204.56;;;23.28;88.74
3668;BME280;24099;47.102;15.440;2023-05-20T11:55:01;97199.38;;;23.79;92.47
3668;BME280;24099;47.102;15.440;2023-05-20T11:57:30;97200.75;;;23.86;88.93
3668;BME280;24099;47.102;15.440;2023-05-20T11:59:58;97194.88;;;24.04;92.29
3668;BME280;24099;47.102;15.440;2023-05-20T12:02:33;97185.72;;;24.05;88.06
3668;BME280;24099;47.102;15.440;2023-05-20T12:05:01;97198.81;;;23.56;84.13
3668;BME280;24099;47.102;15.440;2023-05-20T12:07:29;97198.53;;;23.63;80.55
3668;BME280;24099;47.102;15.440;2023-05-20T12:09:57;97189.13;;;23.55;82.13
3668;BME280;24099;47.102;15.440;2023-05-20T12:12:26;97185.09;;;23.63;85.34
3668;BME280;24099;47.102;15.440;2023-05-20T12:14:54;97191.06;;;23.85;85.31
3668;BME280;24099;47.102;15.440;2023-05-20T12:17:21;97192.69;;;23.91;87.08
3668;BME280;24099;47.102;15.440;2023-05-20T12:19:49;97190.28;;;23.95;85.35
3668;BME280;24099;47.102;15.440;2023-05-20T12:22:17;97197.28;;;23.96;83.44
3668;BME280;24099;47.102;15.440;2023-05-20T12:24:45;97180.13;;;24.32;83.17
3668;BME280;24099;47.102;15.440;2023-05-20T12:27:12;97187.91;;;24.29;83.28
3668;BME280;24099;47.102;15.440;2023-05-20T12:29:41;97183.00;;;24.00;83.91
3668;BME280;24099;47.102;15.440;2023-05-20T12:32:09;97187.34;;;24.07;84.51
3668;BME280;24099;47.102;15.440;2023-05-20T12:34:37;97182.22;;;24.10;84.33
3668;BME280;24099;47.102;15.440;2023-05-20T12:37:05;97191.53;;;23.62;81.67
3668;BME280;24099;47.102;15.440;2023-05-20T12:39:35;97185.16;;;23.83;83.03
3668;BME280;24099;47.102;15.440;2023-05-20T12:42:03;97176.03;;;24.04;83.04
3668;BME280;24099;47.102;15.440;2023-05-20T12:44:30;97175.22;;;23.89;83.62
3668;BME280;24099;47.102;15.440;2023-05-20T12:47:00;97172.81;;;23.97;79.00
3668;BME280;24099;47.102;15.440;2023-05-20T12:49:27;97173.00;;;23.60;81.33
3668;BME280;24099;47.102;15.440;2023-05-20T12:51:58;97172.75;;;23.57;82.81
3668;BME280;24099;47.102;15.440;2023-05-20T12:54:29;97174.53;;;23.46;82.36
3668;BME280;24099;47.102;15.440;2023-05-20T12:56:57;97175.19;;;23.68;87.01
3668;BME280;24099;47.102;15.440;2023-05-20T12:59:24;97173.16;;;23.33;87.19
3668;BME280;24099;47.102;15.440;2023-05-20T13:01:52;97187.81;;;23.06;85.25
3668;BME280;24099;47.102;15.440;2023-05-20T13:04:25;97182.72;;;23.72;86.00